createdAt,value
2022-07-25T00:01:49.613Z,27.90
2022-07-25T00:04:17.423Z,27.96
2022-07-25T00:06:45.550Z,27.78
2022-07-25T00:09:13.870Z,27.84
2022-07-25T00:11:40.918Z,27.83
2022-07-25T00:14:08.189Z,27.84
2022-07-25T00:16:35.429Z,27.85
2022-07-25T00:19:02.191Z,27.83
2022-07-25T00:21:29.165Z,27.77
2022-07-25T00:23:55.902Z,27.89
2022-07-25T00:26:22.665Z,27.93
2022-07-25T00:28:49.381Z,27.76
2022-07-25T00:31:16.171Z,27.75
2022-07-25T00:33:42.983Z,27.80
2022-07-25T00:36:10.280Z,27.87
2022-07-25T00:38:37.066Z,27.81
2022-07-25T00:41:04.552Z,27.99
2022-07-25T00:43:31.942Z,27.96
2022-07-25T00:45:59.105Z,27.92
2022-07-25T00:48:27.581Z,27.96
2022-07-25T00:50:55.846Z,27.85
2022-07-25T00:53:22.723Z,27.92
2022-07-25T00:55:49.418Z,27.92
2022-07-25T00:58:16.675Z,27.96
2022-07-25T01:00:43.428Z,27.73
2022-07-25T01:03:12.830Z,27.94
2022-07-25T01:05:39.784Z,27.72
2022-07-25T01:08:06.906Z,27.77
2022-07-25T01:10:33.995Z,27.56
2022-07-25T01:13:00.791Z,27.31
2022-07-25T01:15:27.774Z,27.41
2022-07-25T01:17:54.469Z,27.44
2022-07-25T01:20:23.463Z,27.42
2022-07-25T01:22:50.748Z,27.22
2022-07-25T01:25:19.473Z,27.30
2022-07-25T01:27:52.726Z,27.37
2022-07-25T01:30:22.755Z,27.14
2022-07-25T01:32:49.655Z,27.09
2022-07-25T01:35:16.701Z,27.21
2022-07-25T01:37:45.783Z,27.09
2022-07-25T01:40:13.145Z,27.18
2022-07-25T01:42:39.787Z,27.13
2022-07-25T01:45:07.234Z,26.98
2022-07-25T01:47:33.943Z,27.08
2022-07-25T01:50:00.565Z,27.17
2022-07-25T01:52:27.265Z,27.20
2022-07-25T01:54:53.936Z,27.21
2022-07-25T01:57:21.464Z,27.17
2022-07-25T01:59:49.801Z,27.16
2022-07-25T02:02:16.525Z,27.19
2022-07-25T02:04:43.241Z,27.17
2022-07-25T02:07:10.039Z,27.10
2022-07-25T02:09:36.741Z,27.15
2022-07-25T02:12:03.618Z,27.11
2022-07-25T02:14:30.285Z,27.05
2022-07-25T02:16:57.144Z,27.01
2022-07-25T02:19:23.987Z,26.95
2022-07-25T02:21:50.879Z,27.07
2022-07-25T02:24:17.825Z,26.70
2022-07-25T02:26:44.677Z,26.83
2022-07-25T02:29:11.418Z,26.88
2022-07-25T02:31:38.096Z,26.71
2022-07-25T02:34:05.235Z,26.60
2022-07-25T02:36:32.250Z,26.66
2022-07-25T02:38:58.965Z,26.46
2022-07-25T02:41:25.738Z,26.44
2022-07-25T02:43:52.427Z,26.41
2022-07-25T02:46:19.324Z,26.49
2022-07-25T02:48:46.178Z,26.35
2022-07-25T02:51:13.235Z,26.44
2022-07-25T02:53:56.595Z,26.25
2022-07-25T02:56:23.667Z,26.18
2022-07-25T02:58:50.369Z,26.06
2022-07-25T03:01:17.074Z,26.00
2022-07-25T03:03:43.925Z,25.97
2022-07-25T03:06:10.574Z,26.08
2022-07-25T03:08:37.295Z,25.91
2022-07-25T03:11:04.019Z,25.73
2022-07-25T03:13:33.266Z,25.87
2022-07-25T03:16:00.403Z,25.92
2022-07-25T03:18:27.088Z,25.77
2022-07-25T03:20:53.770Z,25.90
2022-07-25T03:23:20.661Z,25.91
2022-07-25T03:25:47.514Z,25.79
2022-07-25T03:28:14.295Z,25.80
2022-07-25T03:30:40.911Z,25.88
2022-07-25T03:33:07.556Z,25.78
2022-07-25T03:35:35.188Z,25.73
2022-07-25T03:38:02.216Z,25.81
2022-07-25T03:40:29.099Z,25.86
2022-07-25T03:42:55.767Z,25.82
2022-07-25T03:45:22.557Z,25.83
2022-07-25T03:47:49.305Z,25.87
2022-07-25T03:50:16.356Z,26.08
2022-07-25T03:52:42.982Z,25.99
2022-07-25T03:55:11.077Z,26.07
2022-07-25T03:57:38.413Z,26.18
2022-07-25T04:00:10.203Z,26.25
2022-07-25T04:02:40.392Z,26.18
2022-07-25T04:05:08.316Z,26.25
2022-07-25T04:07:35.794Z,26.22
2022-07-25T04:10:04.823Z,26.07
2022-07-25T04:12:31.880Z,26.08
2022-07-25T04:14:58.767Z,26.03
2022-07-25T04:17:25.915Z,26.16
2022-07-25T04:19:52.706Z,26.27
2022-07-25T04:22:19.406Z,26.23
2022-07-25T04:24:46.071Z,26.39
2022-07-25T04:27:12.700Z,26.26
2022-07-25T04:29:39.465Z,26.27
2022-07-25T04:32:06.745Z,26.16
2022-07-25T04:34:33.682Z,26.12
2022-07-25T04:37:00.330Z,26.12
2022-07-25T04:39:27.110Z,26.28
2022-07-25T04:41:53.839Z,26.33
2022-07-25T04:44:20.506Z,26.39
2022-07-25T04:46:47.258Z,26.72
2022-07-25T04:49:14.140Z,26.77
2022-07-25T04:51:40.951Z,27.02
2022-07-25T04:54:07.962Z,27.17
2022-07-25T04:56:35.514Z,27.33
2022-07-25T04:59:06.281Z,27.38
2022-07-25T05:01:34.574Z,27.57
2022-07-25T05:04:01.652Z,27.47
2022-07-25T05:06:28.455Z,27.48
2022-07-25T05:08:55.477Z,27.67
2022-07-25T05:11:22.277Z,27.63
2022-07-25T05:13:49.404Z,27.84
2022-07-25T05:16:16.325Z,27.87
2022-07-25T05:18:43.131Z,28.08
2022-07-25T05:21:13.210Z,28.09
2022-07-25T05:23:40.990Z,28.22
2022-07-25T05:26:07.774Z,28.50
2022-07-25T05:28:34.504Z,28.66
2022-07-25T05:31:01.393Z,28.97
2022-07-25T05:33:28.114Z,29.04
2022-07-25T05:35:54.897Z,29.21
2022-07-25T05:38:21.711Z,29.19
2022-07-25T05:40:49.126Z,29.00
2022-07-25T05:43:15.761Z,29.19
2022-07-25T05:45:42.637Z,29.17
2022-07-25T05:48:09.331Z,28.97
2022-07-25T05:50:39.147Z,28.81
2022-07-25T05:53:05.875Z,28.93
2022-07-25T05:55:32.555Z,28.93
2022-07-25T05:57:59.518Z,28.90
2022-07-25T06:00:26.519Z,28.87
2022-07-25T06:02:53.351Z,28.86
2022-07-25T06:05:20.124Z,28.78
2022-07-25T06:07:46.787Z,28.91
2022-07-25T06:10:13.491Z,29.03
2022-07-25T06:12:40.151Z,29.24
2022-07-25T06:15:07.886Z,29.44
2022-07-25T06:17:39.496Z,29.43
2022-07-25T06:20:06.765Z,29.50
2022-07-25T06:22:33.412Z,29.44
2022-07-25T06:25:02.243Z,29.47
2022-07-25T06:27:29.639Z,29.70
2022-07-25T06:29:56.553Z,29.81
2022-07-25T06:32:23.357Z,29.90
2022-07-25T06:34:50.025Z,29.95
2022-07-25T06:37:16.764Z,30.07
2022-07-25T06:39:45.927Z,30.14
2022-07-25T06:42:13.207Z,30.01
2022-07-25T06:44:39.983Z,30.00
2022-07-25T06:47:10.702Z,29.79
2022-07-25T06:49:37.407Z,29.96
2022-07-25T06:52:04.399Z,29.79
2022-07-25T06:54:31.064Z,29.71
2022-07-25T06:56:57.771Z,30.06
2022-07-25T06:59:24.481Z,29.87
2022-07-25T07:01:51.811Z,30.09
2022-07-25T07:04:18.915Z,29.97
2022-07-25T07:06:45.654Z,30.09
2022-07-25T07:09:12.392Z,30.15
2022-07-25T07:11:39.121Z,30.03
2022-07-25T07:14:06.208Z,30.09
2022-07-25T07:16:33.365Z,30.13
2022-07-25T07:19:00.375Z,29.69
2022-07-25T07:21:27.066Z,29.77
2022-07-25T07:23:53.965Z,29.66
2022-07-25T07:26:21.516Z,29.64
2022-07-25T07:28:48.243Z,29.70
2022-07-25T07:31:18.358Z,29.72
2022-07-25T07:33:45.754Z,29.65
2022-07-25T07:36:12.768Z,29.37
2022-07-25T07:38:40.122Z,29.64
2022-07-25T07:41:06.811Z,29.52
2022-07-25T07:43:33.519Z,29.72
2022-07-25T07:46:01.544Z,29.80
2022-07-25T07:48:30.966Z,29.69
2022-07-25T07:50:58.457Z,30.09
2022-07-25T07:53:43.646Z,30.60
2022-07-25T07:56:10.600Z,31.13
2022-07-25T07:58:37.262Z,31.36
2022-07-25T08:01:04.533Z,31.60
2022-07-25T08:03:31.485Z,31.42
2022-07-25T08:05:58.466Z,31.47
2022-07-25T08:08:30.633Z,31.61
2022-07-25T08:10:59.168Z,31.59
2022-07-25T08:13:28.653Z,32.03
2022-07-25T08:15:59.752Z,32.24
2022-07-25T08:18:30.070Z,32.47
2022-07-25T08:20:57.098Z,32.52
2022-07-25T08:23:25.419Z,32.46
2022-07-25T08:25:52.187Z,32.75
2022-07-25T08:28:19.064Z,32.98
2022-07-25T08:30:45.876Z,32.97
2022-07-25T08:33:16.228Z,33.20
2022-07-25T08:35:55.774Z,32.92
2022-07-25T08:38:24.852Z,33.11
2022-07-25T08:40:53.193Z,33.22
2022-07-25T08:43:20.145Z,33.19
2022-07-25T08:45:54.028Z,32.97
2022-07-25T08:48:25.565Z,32.55
2022-07-25T08:50:54.112Z,32.39
2022-07-25T08:53:37.163Z,32.01
2022-07-25T08:56:12.185Z,31.95
2022-07-25T08:58:40.959Z,31.71
2022-07-25T09:01:08.238Z,31.50
2022-07-25T09:03:36.378Z,31.46
2022-07-25T09:06:17.537Z,31.34
2022-07-25T09:09:00.621Z,31.35
2022-07-25T09:11:29.985Z,31.27
2022-07-25T09:14:01.777Z,31.66
2022-07-25T09:16:34.100Z,32.10
2022-07-25T09:19:12.994Z,32.32
2022-07-25T09:21:40.765Z,32.33
2022-07-25T09:24:16.232Z,32.10
2022-07-25T09:26:54.631Z,31.99
2022-07-25T09:29:28.587Z,31.82
2022-07-25T09:31:57.160Z,32.04
2022-07-25T09:34:32.081Z,32.11
2022-07-25T09:36:58.860Z,32.38
2022-07-25T09:39:45.010Z,32.27
2022-07-25T09:42:36.463Z,32.35
2022-07-25T09:45:12.875Z,32.07
2022-07-25T09:47:54.614Z,32.04
2022-07-25T09:50:22.919Z,32.04
2022-07-25T09:52:52.453Z,31.79
2022-07-25T09:55:20.466Z,31.98
2022-07-25T09:57:49.163Z,32.49
2022-07-25T10:00:24.204Z,32.78
2022-07-25T10:03:05.862Z,32.42
2022-07-25T10:05:35.369Z,32.55
2022-07-25T10:08:06.854Z,32.76
2022-07-25T10:10:39.861Z,32.89
2022-07-25T10:13:11.521Z,32.83
2022-07-25T10:15:50.242Z,33.09
2022-07-25T10:18:23.809Z,33.42
2022-07-25T10:20:52.978Z,33.79
2022-07-25T10:23:27.943Z,33.94
2022-07-25T10:26:13.877Z,34.15
2022-07-25T10:28:42.393Z,34.42
2022-07-25T10:31:24.579Z,34.28
2022-07-25T10:33:57.049Z,34.49
2022-07-25T10:36:25.185Z,34.70
2022-07-25T10:38:56.193Z,34.77
2022-07-25T10:41:26.093Z,35.23
2022-07-25T10:43:57.718Z,35.44
2022-07-25T10:46:28.187Z,35.43
2022-07-25T10:49:07.391Z,35.45
2022-07-25T10:51:41.319Z,35.68
2022-07-25T10:54:16.087Z,35.35
2022-07-25T10:56:59.672Z,35.07
2022-07-25T10:59:38.936Z,35.24
2022-07-25T11:02:09.677Z,35.33
2022-07-25T11:04:36.631Z,35.48
2022-07-25T11:07:20.404Z,35.70
2022-07-25T11:10:00.462Z,35.53
2022-07-25T11:12:27.944Z,35.67
2022-07-25T11:15:03.212Z,35.66
2022-07-25T11:17:30.253Z,35.57
2022-07-25T11:19:58.281Z,35.99
2022-07-25T11:22:26.446Z,36.04
2022-07-25T11:24:53.613Z,36.03
2022-07-25T11:27:28.746Z,36.16
2022-07-25T11:30:16.020Z,35.95
2022-07-25T11:32:43.912Z,35.78
2022-07-25T11:35:14.056Z,35.92
2022-07-25T11:37:43.532Z,35.78
2022-07-25T11:40:11.165Z,35.95
2022-07-25T11:42:47.876Z,36.04
2022-07-25T11:45:20.201Z,36.27
2022-07-25T11:48:11.661Z,35.73
2022-07-25T11:50:40.722Z,36.06
2022-07-25T11:53:10.284Z,36.23
2022-07-25T11:55:45.459Z,36.29
2022-07-25T11:58:13.948Z,36.09
2022-07-25T12:00:43.342Z,36.18
2022-07-25T12:03:18.697Z,36.59
2022-07-25T12:05:47.849Z,36.91
2022-07-25T12:08:19.765Z,36.93
2022-07-25T12:10:48.349Z,37.06
2022-07-25T12:13:29.440Z,36.98
2022-07-25T12:15:57.431Z,37.00
2022-07-25T12:18:24.178Z,36.66
2022-07-25T12:20:51.025Z,36.75
2022-07-25T12:23:18.808Z,36.29
2022-07-25T12:25:46.739Z,35.99
2022-07-25T12:28:14.419Z,36.02
2022-07-25T12:30:43.106Z,36.29
2022-07-25T12:33:10.578Z,36.36
2022-07-25T12:35:37.582Z,36.25
2022-07-25T12:38:04.967Z,36.02
2022-07-25T12:40:31.907Z,35.99
2022-07-25T12:42:59.543Z,35.79
2022-07-25T12:45:26.750Z,35.99
2022-07-25T12:47:53.469Z,35.59
2022-07-25T12:50:20.220Z,34.96
2022-07-25T12:52:47.443Z,34.80
2022-07-25T12:55:19.254Z,34.44
2022-07-25T12:57:46.570Z,34.35
2022-07-25T13:00:16.942Z,34.34
2022-07-25T13:02:44.124Z,34.07
2022-07-25T13:05:11.223Z,34.23
2022-07-25T13:07:38.430Z,33.99
2022-07-25T13:10:06.477Z,33.94
2022-07-25T13:12:33.246Z,33.91
2022-07-25T13:14:59.944Z,33.93
2022-07-25T13:17:27.838Z,33.86
2022-07-25T13:19:56.481Z,33.94
2022-07-25T13:22:23.909Z,34.04
2022-07-25T13:24:50.974Z,33.68
2022-07-25T13:27:21.882Z,33.54
2022-07-25T13:29:54.269Z,33.46
2022-07-25T13:32:22.288Z,33.41
2022-07-25T13:34:49.040Z,33.26
2022-07-25T13:37:15.859Z,33.42
2022-07-25T13:39:42.811Z,33.37
2022-07-25T13:42:09.647Z,33.30
2022-07-25T13:44:36.378Z,33.42
2022-07-25T13:47:03.173Z,33.34
2022-07-25T13:49:31.580Z,33.58
2022-07-25T13:51:58.265Z,33.64
2022-07-25T13:54:24.986Z,33.71
2022-07-25T13:56:51.807Z,33.58
2022-07-25T13:59:21.430Z,33.66
2022-07-25T14:01:49.487Z,33.71
2022-07-25T14:04:16.388Z,33.77
2022-07-25T14:06:43.462Z,33.72
2022-07-25T14:09:10.640Z,33.57
2022-07-25T14:11:37.579Z,33.62
2022-07-25T14:14:04.269Z,33.46
2022-07-25T14:16:31.139Z,33.42
2022-07-25T14:18:57.935Z,33.23
2022-07-25T14:21:25.390Z,33.38
2022-07-25T14:23:52.437Z,33.22
2022-07-25T14:26:19.320Z,33.12
2022-07-25T14:28:46.004Z,33.10
2022-07-25T14:31:12.817Z,33.23
2022-07-25T14:33:40.625Z,32.97
2022-07-25T14:36:09.457Z,32.87
2022-07-25T14:38:36.181Z,32.86
2022-07-25T14:41:05.698Z,32.84
2022-07-25T14:43:35.778Z,32.65
2022-07-25T14:46:02.457Z,32.61
2022-07-25T14:48:29.370Z,32.54
2022-07-25T14:50:56.153Z,32.51
2022-07-25T14:53:22.844Z,32.31
2022-07-25T14:55:49.542Z,32.12
2022-07-25T14:58:16.213Z,32.16
2022-07-25T15:00:43.785Z,31.99
2022-07-25T15:03:10.569Z,31.95
2022-07-25T15:05:38.511Z,31.87
2022-07-25T15:08:06.419Z,31.88
2022-07-25T15:10:33.216Z,31.61
2022-07-25T15:13:20.861Z,31.48
2022-07-25T15:15:47.013Z,31.56
2022-07-25T15:18:14.235Z,31.54
2022-07-25T15:20:41.163Z,31.49
2022-07-25T15:23:07.939Z,31.63
2022-07-25T15:26:00.558Z,31.72
2022-07-25T15:28:21.735Z,31.57
2022-07-25T15:30:48.656Z,31.52
2022-07-25T15:33:16.339Z,31.38
2022-07-25T15:35:45.494Z,31.38
2022-07-25T15:38:13.096Z,31.02
2022-07-25T15:40:39.811Z,31.03
2022-07-25T15:43:06.524Z,31.11
2022-07-25T15:45:33.847Z,31.00
2022-07-25T15:48:01.549Z,31.31
2022-07-25T15:50:28.237Z,31.20
2022-07-25T15:52:54.900Z,31.35
2022-07-25T15:55:21.602Z,31.20
2022-07-25T15:57:48.225Z,31.16
2022-07-25T16:00:15.137Z,31.22
2022-07-25T16:02:41.823Z,31.11
2022-07-25T16:05:08.763Z,31.13
2022-07-25T16:07:35.403Z,31.06
2022-07-25T16:10:02.102Z,30.98
2022-07-25T16:12:28.955Z,31.10
2022-07-25T16:14:56.172Z,31.09
2022-07-25T16:17:23.888Z,30.86
2022-07-25T16:19:50.544Z,30.96
2022-07-25T16:22:17.311Z,30.78
2022-07-25T16:24:44.475Z,30.87
2022-07-25T16:27:11.163Z,30.84
2022-07-25T16:29:38.281Z,30.90
2022-07-25T16:32:05.971Z,31.01
2022-07-25T16:34:33.106Z,30.89
2022-07-25T16:37:01.438Z,30.97
2022-07-25T16:39:28.730Z,30.71
2022-07-25T16:41:55.577Z,30.79
2022-07-25T16:44:23.854Z,30.74
2022-07-25T16:46:51.012Z,30.53
2022-07-25T16:49:17.858Z,30.71
2022-07-25T16:51:45.484Z,30.70
2022-07-25T16:54:12.553Z,30.53
2022-07-25T16:56:39.902Z,30.44
2022-07-25T16:59:07.941Z,30.63
2022-07-25T17:01:35.863Z,30.56
2022-07-25T17:04:02.840Z,30.47
2022-07-25T17:06:29.822Z,30.63
2022-07-25T17:08:56.780Z,30.51
2022-07-25T17:11:23.465Z,30.51
2022-07-25T17:13:50.194Z,30.51
2022-07-25T17:16:17.018Z,30.31
2022-07-25T17:18:43.719Z,30.19
2022-07-25T17:21:10.718Z,30.21
2022-07-25T17:23:37.367Z,30.11
2022-07-25T17:26:05.504Z,30.31
2022-07-25T17:28:32.815Z,30.11
2022-07-25T17:30:59.488Z,29.93
2022-07-25T17:33:26.384Z,29.89
2022-07-25T17:35:53.790Z,30.05
2022-07-25T17:38:25.650Z,29.76
2022-07-25T17:40:53.664Z,29.72
2022-07-25T17:43:20.304Z,29.75
2022-07-25T17:45:46.973Z,29.73
2022-07-25T17:48:13.815Z,29.70
2022-07-25T17:50:40.539Z,29.71
2022-07-25T17:53:07.225Z,29.61
2022-07-25T17:55:38.809Z,29.54
2022-07-25T17:58:06.051Z,29.47
2022-07-25T18:00:32.846Z,29.50
2022-07-25T18:03:00.013Z,29.23
2022-07-25T18:05:27.797Z,29.17
2022-07-25T18:07:54.582Z,29.12
2022-07-25T18:10:22.070Z,29.17
2022-07-25T18:12:49.655Z,29.17
2022-07-25T18:15:16.883Z,28.92
2022-07-25T18:17:48.114Z,29.02
2022-07-25T18:20:16.702Z,28.88
2022-07-25T18:22:43.511Z,29.00
2022-07-25T18:25:12.197Z,28.80
2022-07-25T18:27:44.018Z,28.87
2022-07-25T18:30:12.107Z,28.75
2022-07-25T18:32:39.503Z,28.83
2022-07-25T18:35:08.018Z,28.71
2022-07-25T18:37:37.099Z,28.68
2022-07-25T18:40:08.722Z,28.63
2022-07-25T18:42:35.989Z,28.64
2022-07-25T18:45:03.979Z,28.62
2022-07-25T18:47:35.041Z,28.50
2022-07-25T18:50:02.603Z,28.46
2022-07-25T18:52:34.748Z,28.36
2022-07-25T18:55:02.336Z,28.44
2022-07-25T18:57:30.109Z,28.20
2022-07-25T19:00:00.933Z,28.25
2022-07-25T19:02:29.610Z,28.16
2022-07-25T19:04:56.467Z,28.17
2022-07-25T19:07:23.432Z,28.12
2022-07-25T19:09:50.112Z,27.97
2022-07-25T19:12:16.917Z,27.91
2022-07-25T19:14:44.203Z,28.02
2022-07-25T19:17:12.034Z,27.97
2022-07-25T19:19:38.975Z,27.76
2022-07-25T19:22:05.727Z,27.73
2022-07-25T19:24:32.477Z,27.63
2022-07-25T19:26:59.213Z,27.65
2022-07-25T19:29:27.567Z,27.66
2022-07-25T19:31:54.272Z,27.56
2022-07-25T19:34:23.059Z,27.63
2022-07-25T19:36:49.814Z,27.56
2022-07-25T19:39:18.112Z,27.39
2022-07-25T19:41:47.011Z,27.35
2022-07-25T19:44:14.124Z,27.41
2022-07-25T19:46:40.874Z,27.35
2022-07-25T19:49:08.031Z,27.19
2022-07-25T19:51:34.996Z,27.36
2022-07-25T19:54:03.867Z,27.21
2022-07-25T19:56:31.575Z,27.33
2022-07-25T19:58:58.591Z,27.15
2022-07-25T20:01:25.821Z,27.10
2022-07-25T20:03:52.583Z,27.26
2022-07-25T20:06:20.810Z,27.13
2022-07-25T20:08:48.357Z,27.19
2022-07-25T20:11:16.163Z,27.13
2022-07-25T20:13:42.937Z,27.16
2022-07-25T20:16:10.560Z,27.07
2022-07-25T20:18:37.744Z,27.05
2022-07-25T20:21:04.946Z,27.23
2022-07-25T20:23:31.881Z,27.05
2022-07-25T20:26:00.737Z,27.09
2022-07-25T20:28:27.593Z,26.81
2022-07-25T20:30:55.986Z,26.92
2022-07-25T20:33:27.273Z,26.96
2022-07-25T20:35:55.044Z,26.67
2022-07-25T20:38:25.665Z,26.80
2022-07-25T20:40:53.349Z,26.64
2022-07-25T20:43:20.098Z,26.74
2022-07-25T20:45:47.458Z,26.77
2022-07-25T20:48:14.795Z,26.72
2022-07-25T20:50:41.502Z,26.64
2022-07-25T20:53:08.925Z,26.63
2022-07-25T20:55:36.903Z,26.47
2022-07-25T20:58:05.169Z,26.53
2022-07-25T21:00:32.447Z,26.51
2022-07-25T21:03:00.423Z,26.53
2022-07-25T21:05:28.034Z,26.36
2022-07-25T21:07:54.894Z,26.29
2022-07-25T21:10:21.603Z,26.33
2022-07-25T21:12:48.393Z,26.30
2022-07-25T21:15:15.294Z,26.12
2022-07-25T21:17:42.021Z,26.06
2022-07-25T21:20:13.719Z,26.01
2022-07-25T21:22:41.561Z,26.00
2022-07-25T21:25:09.055Z,25.91
2022-07-25T21:27:36.475Z,25.81
2022-07-25T21:30:05.883Z,25.89
2022-07-25T21:32:32.846Z,25.96
2022-07-25T21:34:59.858Z,25.91
2022-07-25T21:37:26.533Z,25.75
2022-07-25T21:39:53.463Z,25.75
2022-07-25T21:42:21.345Z,25.80
2022-07-25T21:44:48.255Z,25.63
2022-07-25T21:47:14.948Z,25.70
2022-07-25T21:50:00.652Z,25.58
2022-07-25T21:52:34.565Z,25.55
2022-07-25T21:55:02.954Z,25.66
2022-07-25T21:57:29.599Z,25.43
2022-07-25T21:59:56.424Z,25.67
2022-07-25T22:02:23.616Z,25.57
2022-07-25T22:04:50.741Z,25.40
2022-07-25T22:07:17.726Z,25.34
2022-07-25T22:09:44.973Z,25.38
2022-07-25T22:12:11.849Z,25.30
2022-07-25T22:14:38.640Z,25.38
2022-07-25T22:17:05.847Z,25.29
2022-07-25T22:19:33.040Z,25.23
2022-07-25T22:22:00.047Z,25.21
2022-07-25T22:24:26.725Z,25.37
2022-07-25T22:26:53.577Z,25.21
2022-07-25T22:29:20.249Z,25.20
2022-07-25T22:31:47.696Z,25.23
2022-07-25T22:34:14.450Z,25.26
2022-07-25T22:36:41.150Z,24.98
2022-07-25T22:39:08.382Z,25.25
2022-07-25T22:41:35.532Z,25.26
2022-07-25T22:44:02.240Z,25.07
2022-07-25T22:46:30.574Z,25.29
2022-07-25T22:48:58.771Z,25.26
2022-07-25T22:51:26.671Z,25.14
2022-07-25T22:53:53.787Z,25.19
2022-07-25T22:56:21.288Z,25.01
2022-07-25T22:58:48.820Z,24.92
2022-07-25T23:01:17.332Z,25.07
2022-07-25T23:03:44.203Z,25.03
2022-07-25T23:06:11.241Z,24.84
2022-07-25T23:08:38.110Z,24.88
2022-07-25T23:11:06.353Z,24.81
2022-07-25T23:13:36.794Z,24.68
2022-07-25T23:16:04.627Z,24.90
2022-07-25T23:18:31.990Z,24.62
2022-07-25T23:20:59.129Z,24.69
2022-07-25T23:23:25.799Z,24.69
2022-07-25T23:25:52.747Z,24.60
2022-07-25T23:28:19.502Z,24.58
2022-07-25T23:30:46.150Z,24.60
2022-07-25T23:33:12.827Z,24.60
2022-07-25T23:35:39.506Z,24.53
2022-07-25T23:38:06.225Z,24.52
2022-07-25T23:40:33.113Z,24.55
2022-07-25T23:42:59.849Z,24.52
2022-07-25T23:45:28.592Z,24.40
2022-07-25T23:47:57.099Z,24.48
2022-07-25T23:50:24.406Z,24.35
2022-07-25T23:52:51.489Z,24.36
2022-07-25T23:55:18.206Z,24.38
2022-07-25T23:57:44.955Z,24.45
